createdAt,value
2022-12-31T00:00:57.959Z,0.00
2022-12-31T00:01:57.868Z,0.00
2022-12-31T00:02:57.827Z,0.00
2022-12-31T00:03:57.830Z,0.00
2022-12-31T00:04:57.792Z,0.00
2022-12-31T00:05:57.583Z,0.00
2022-12-31T00:06:57.794Z,0.00
2022-12-31T00:07:57.493Z,0.00
2022-12-31T00:08:57.450Z,0.00
2022-12-31T00:09:57.403Z,0.00
2022-12-31T00:10:57.624Z,0.00
2022-12-31T00:11:57.308Z,0.00
2022-12-31T00:12:57.639Z,0.00
2022-12-31T00:13:57.219Z,0.00
2022-12-31T00:14:57.183Z,0.00
2022-12-31T00:15:57.248Z,0.00
2022-12-31T00:16:57.134Z,0.00
2022-12-31T00:17:57.264Z,0.00
2022-12-31T00:18:56.989Z,0.00
2022-12-31T00:19:58.104Z,0.00
2022-12-31T00:20:56.902Z,0.00
2022-12-31T00:21:57.092Z,0.00
2022-12-31T00:22:56.808Z,0.00
2022-12-31T00:23:57.100Z,0.00
2022-12-31T00:24:56.715Z,0.00
2022-12-31T00:25:56.673Z,0.00
2022-12-31T00:26:56.627Z,0.00
2022-12-31T00:27:56.723Z,0.00
2022-12-31T00:28:56.548Z,0.00
2022-12-31T00:30:02.459Z,0.00
2022-12-31T00:30:56.506Z,0.00
2022-12-31T00:31:56.419Z,0.00
2022-12-31T00:32:56.357Z,0.00
2022-12-31T00:33:56.561Z,0.00
2022-12-31T00:34:56.263Z,0.00
2022-12-31T00:35:57.594Z,0.00
2022-12-31T00:36:56.183Z,0.00
2022-12-31T00:37:56.133Z,0.00
2022-12-31T00:38:56.092Z,0.00
2022-12-31T00:39:56.195Z,0.00
2022-12-31T00:40:55.995Z,0.00
2022-12-31T00:41:56.209Z,0.00
2022-12-31T00:42:55.908Z,0.00
2022-12-31T00:43:56.074Z,0.00
2022-12-31T00:44:55.813Z,0.00
2022-12-31T00:45:56.067Z,0.00
2022-12-31T00:46:55.719Z,0.00
2022-12-31T00:47:55.753Z,0.00
2022-12-31T00:48:55.665Z,0.00
2022-12-31T00:49:55.775Z,0.00
2022-12-31T00:50:55.544Z,0.00
2022-12-31T00:51:55.725Z,0.00
2022-12-31T00:52:55.447Z,0.00
2022-12-31T00:53:55.703Z,0.00
2022-12-31T00:54:56.514Z,0.00
2022-12-31T00:55:57.591Z,0.00
2022-12-31T00:56:55.499Z,0.00
2022-12-31T00:57:55.224Z,0.00
2022-12-31T00:58:55.314Z,0.00
2022-12-31T00:59:55.132Z,0.00
2022-12-31T01:00:55.257Z,0.00
2022-12-31T01:01:55.475Z,0.00
2022-12-31T01:02:55.090Z,0.00
2022-12-31T01:03:55.154Z,0.00
2022-12-31T01:04:54.904Z,0.00
2022-12-31T01:05:55.172Z,0.00
2022-12-31T01:06:54.810Z,0.00
2022-12-31T01:07:55.170Z,0.00
2022-12-31T01:08:54.728Z,0.00
2022-12-31T01:09:54.978Z,0.00
2022-12-31T01:10:54.648Z,0.00
2022-12-31T01:11:54.785Z,0.00
2022-12-31T01:12:54.539Z,0.00
2022-12-31T01:13:54.805Z,0.00
2022-12-31T01:14:54.449Z,0.00
2022-12-31T01:15:54.658Z,0.00
2022-12-31T01:16:54.680Z,0.00
2022-12-31T01:17:54.326Z,0.00
2022-12-31T01:18:54.273Z,0.00
2022-12-31T01:19:54.438Z,0.00
2022-12-31T01:20:54.178Z,0.00
2022-12-31T01:21:54.450Z,0.00
2022-12-31T01:22:54.116Z,0.00
2022-12-31T01:23:54.048Z,0.00
2022-12-31T01:24:53.997Z,0.00
2022-12-31T01:25:54.281Z,0.00
2022-12-31T01:26:53.907Z,0.00
2022-12-31T01:27:54.087Z,0.00
2022-12-31T01:28:54.141Z,0.00
2022-12-31T01:29:53.773Z,0.00
2022-12-31T01:30:53.769Z,0.00
2022-12-31T01:31:53.907Z,0.00
2022-12-31T01:32:53.645Z,0.00
2022-12-31T01:33:53.723Z,0.00
2022-12-31T01:34:53.560Z,0.00
2022-12-31T01:35:53.529Z,0.00
2022-12-31T01:36:53.739Z,0.00
2022-12-31T01:37:53.419Z,0.00
2022-12-31T01:38:53.567Z,0.00
2022-12-31T01:39:53.329Z,0.00
2022-12-31T01:40:53.525Z,0.00
2022-12-31T01:41:53.261Z,0.00
2022-12-31T01:42:53.274Z,0.00
2022-12-31T01:43:53.151Z,0.00
2022-12-31T01:44:53.301Z,0.00
2022-12-31T01:45:53.105Z,0.00
2022-12-31T01:46:53.005Z,0.00
2022-12-31T01:47:53.155Z,0.00
2022-12-31T01:48:53.117Z,0.00
2022-12-31T01:49:52.875Z,0.00
2022-12-31T01:50:52.923Z,0.00
2022-12-31T01:51:52.788Z,0.00
2022-12-31T01:52:52.738Z,0.00
2022-12-31T01:53:52.707Z,0.00
2022-12-31T01:54:52.759Z,0.00
2022-12-31T01:55:52.606Z,0.00
2022-12-31T01:56:52.764Z,0.00
2022-12-31T01:57:52.521Z,0.00
2022-12-31T01:58:52.474Z,0.00
2022-12-31T01:59:52.786Z,0.00
2022-12-31T02:00:52.382Z,0.00
2022-12-31T02:01:52.448Z,0.00
2022-12-31T02:02:52.468Z,0.00
2022-12-31T02:03:52.404Z,0.00
2022-12-31T02:04:52.204Z,0.00
2022-12-31T02:05:52.215Z,0.00
2022-12-31T02:06:52.110Z,0.00
2022-12-31T02:07:52.226Z,0.00
2022-12-31T02:08:52.030Z,0.00
2022-12-31T02:09:51.975Z,0.00
2022-12-31T02:10:51.935Z,0.00
2022-12-31T02:11:52.255Z,0.00
2022-12-31T02:12:51.845Z,0.00
2022-12-31T02:13:58.015Z,0.00
2022-12-31T02:14:51.759Z,0.00
2022-12-31T02:15:51.781Z,0.00
2022-12-31T02:16:51.664Z,0.00
2022-12-31T02:17:51.686Z,0.00
2022-12-31T02:18:51.577Z,0.00
2022-12-31T02:19:51.905Z,0.00
2022-12-31T02:20:51.492Z,0.00
2022-12-31T02:21:51.441Z,0.00
2022-12-31T02:22:51.519Z,0.00
2022-12-31T02:23:51.348Z,0.00
2022-12-31T02:24:51.535Z,0.00
2022-12-31T02:25:51.286Z,0.00
2022-12-31T02:26:51.343Z,0.00
2022-12-31T02:27:51.194Z,0.00
2022-12-31T02:28:51.359Z,0.00
2022-12-31T02:29:51.082Z,0.00
2022-12-31T02:30:51.232Z,0.00
2022-12-31T02:31:51.233Z,0.00
2022-12-31T02:32:50.965Z,0.00
2022-12-31T02:33:50.912Z,0.00
2022-12-31T02:34:50.994Z,0.00
2022-12-31T02:35:50.830Z,0.00
2022-12-31T02:36:50.808Z,0.00
2022-12-31T02:37:50.723Z,0.00
2022-12-31T02:38:50.875Z,0.00
2022-12-31T02:39:50.644Z,0.00
2022-12-31T02:40:50.627Z,0.00
2022-12-31T02:41:50.558Z,0.00
2022-12-31T02:42:55.330Z,0.00
2022-12-31T02:43:50.451Z,0.00
2022-12-31T02:44:50.434Z,0.00
2022-12-31T02:45:50.463Z,0.00
2022-12-31T02:46:50.381Z,0.00
2022-12-31T02:47:50.480Z,0.00
2022-12-31T02:48:50.230Z,0.00
2022-12-31T02:49:50.383Z,0.00
2022-12-31T02:50:50.242Z,0.00
2022-12-31T02:51:50.195Z,0.00
2022-12-31T02:52:50.063Z,0.00
2022-12-31T02:53:50.220Z,0.00
2022-12-31T02:54:49.968Z,0.00
2022-12-31T02:55:49.920Z,0.00
2022-12-31T02:56:49.899Z,0.00
2022-12-31T02:57:50.041Z,0.00
2022-12-31T02:58:49.784Z,0.00
2022-12-31T02:59:49.856Z,0.00
2022-12-31T03:00:49.792Z,0.00
2022-12-31T03:01:49.750Z,0.00
2022-12-31T03:02:49.912Z,0.00
2022-12-31T03:03:49.566Z,0.00
2022-12-31T03:04:49.680Z,0.00
2022-12-31T03:05:49.490Z,0.00
2022-12-31T03:06:49.485Z,0.00
2022-12-31T03:07:49.405Z,0.00
2022-12-31T03:08:49.341Z,0.00
2022-12-31T03:09:49.514Z,0.00
2022-12-31T03:10:49.259Z,0.00
2022-12-31T03:11:49.322Z,0.00
2022-12-31T03:12:49.166Z,0.00
2022-12-31T03:13:49.177Z,0.00
2022-12-31T03:14:49.141Z,0.00
2022-12-31T03:15:49.059Z,0.00
2022-12-31T03:16:49.156Z,0.00
2022-12-31T03:17:48.931Z,0.00
2022-12-31T03:18:48.893Z,0.00
2022-12-31T03:19:48.867Z,0.00
2022-12-31T03:20:48.888Z,0.00
2022-12-31T03:21:48.755Z,0.00
2022-12-31T03:22:48.783Z,0.00
2022-12-31T03:23:48.671Z,0.00
2022-12-31T03:24:48.629Z,0.00
2022-12-31T03:25:48.647Z,0.00
2022-12-31T03:26:48.654Z,0.00
2022-12-31T03:27:48.502Z,0.00
2022-12-31T03:28:48.640Z,0.00
2022-12-31T03:29:48.401Z,0.00
2022-12-31T03:30:48.391Z,0.00
2022-12-31T03:31:48.434Z,0.00
2022-12-31T03:32:48.278Z,0.00
2022-12-31T03:33:48.436Z,0.00
2022-12-31T03:34:48.194Z,0.00
2022-12-31T03:35:48.276Z,0.00
2022-12-31T03:36:48.336Z,0.00
2022-12-31T03:37:48.282Z,0.00
2022-12-31T03:38:52.563Z,0.00
2022-12-31T03:39:48.090Z,0.00
2022-12-31T03:40:47.923Z,0.00
2022-12-31T03:41:48.113Z,0.00
2022-12-31T03:42:47.822Z,0.00
2022-12-31T03:43:48.126Z,0.00
2022-12-31T03:44:47.725Z,0.00
2022-12-31T03:45:47.974Z,0.00
2022-12-31T03:46:47.639Z,0.00
2022-12-31T03:47:47.594Z,0.00
2022-12-31T03:48:47.564Z,0.00
2022-12-31T03:49:47.550Z,0.00
2022-12-31T03:50:47.461Z,0.00
2022-12-31T03:51:47.566Z,0.00
2022-12-31T03:52:47.370Z,0.00
2022-12-31T03:53:47.328Z,0.00
2022-12-31T03:54:47.436Z,0.00
2022-12-31T03:55:49.448Z,0.00
2022-12-31T03:56:49.443Z,0.00
2022-12-31T03:57:47.207Z,0.00
2022-12-31T03:58:47.106Z,0.00
2022-12-31T03:59:47.055Z,0.00
2022-12-31T04:00:47.265Z,0.00
2022-12-31T04:01:47.073Z,0.00
2022-12-31T04:02:47.102Z,0.00
2022-12-31T04:03:46.879Z,0.00
2022-12-31T04:04:47.053Z,0.00
2022-12-31T04:05:46.786Z,0.00
2022-12-31T04:06:47.062Z,0.00
2022-12-31T04:07:46.710Z,0.00
2022-12-31T04:08:46.870Z,0.00
2022-12-31T04:09:46.613Z,0.00
2022-12-31T04:10:46.566Z,0.00
2022-12-31T04:11:46.516Z,0.00
2022-12-31T04:12:46.695Z,0.00
2022-12-31T04:13:46.433Z,0.00
2022-12-31T04:14:46.511Z,0.00
2022-12-31T04:15:46.338Z,0.00
2022-12-31T04:16:46.320Z,0.00
2022-12-31T04:17:46.248Z,0.00
2022-12-31T04:18:46.537Z,0.00
2022-12-31T04:19:46.156Z,0.00
2022-12-31T04:20:46.341Z,0.00
2022-12-31T04:21:46.072Z,0.00
2022-12-31T04:22:46.043Z,0.00
2022-12-31T04:23:46.158Z,0.00
2022-12-31T04:24:45.959Z,0.00
2022-12-31T04:25:45.968Z,0.00
2022-12-31T04:26:45.844Z,0.00
2022-12-31T04:27:45.985Z,0.00
2022-12-31T04:28:45.756Z,0.00
2022-12-31T04:29:45.794Z,0.00
2022-12-31T04:30:45.864Z,0.00
2022-12-31T04:31:45.835Z,0.00
2022-12-31T04:32:45.587Z,0.00
2022-12-31T04:33:45.539Z,0.00
2022-12-31T04:34:45.491Z,0.00
2022-12-31T04:35:45.641Z,0.00
2022-12-31T04:36:45.435Z,0.00
2022-12-31T04:37:45.442Z,0.00
2022-12-31T04:38:45.307Z,0.00
2022-12-31T04:39:45.273Z,0.00
2022-12-31T04:40:45.217Z,0.00
2022-12-31T04:41:45.270Z,0.00
2022-12-31T04:42:45.332Z,0.00
2022-12-31T04:43:45.297Z,0.00
2022-12-31T04:44:45.054Z,0.00
2022-12-31T04:45:45.039Z,0.00
2022-12-31T04:46:45.100Z,0.00
2022-12-31T04:47:44.912Z,0.00
2022-12-31T04:48:45.116Z,0.00
2022-12-31T04:49:44.827Z,0.00
2022-12-31T04:50:44.927Z,0.00
2022-12-31T04:51:44.724Z,0.00
2022-12-31T04:52:44.947Z,0.00
2022-12-31T04:53:44.641Z,0.00
2022-12-31T04:54:46.007Z,0.00
2022-12-31T04:55:44.547Z,0.00
2022-12-31T04:56:44.501Z,0.00
2022-12-31T04:57:44.459Z,0.00
2022-12-31T04:58:44.584Z,0.00
2022-12-31T04:59:44.388Z,0.00
2022-12-31T05:00:44.381Z,0.00
2022-12-31T05:01:44.372Z,0.00
2022-12-31T05:02:44.373Z,0.00
2022-12-31T05:03:44.191Z,0.00
2022-12-31T05:04:44.214Z,0.00
2022-12-31T05:05:44.266Z,0.00
2022-12-31T05:06:44.227Z,0.00
2022-12-31T05:07:44.018Z,0.00
2022-12-31T05:08:43.967Z,0.00
2022-12-31T05:09:44.046Z,0.00
2022-12-31T05:10:43.875Z,0.00
2022-12-31T05:11:44.055Z,0.00
2022-12-31T05:12:43.912Z,0.00
2022-12-31T05:13:43.869Z,0.00
2022-12-31T05:14:43.702Z,0.00
2022-12-31T05:15:43.884Z,0.00
2022-12-31T05:16:43.693Z,0.00
2022-12-31T05:17:43.700Z,0.00
2022-12-31T05:18:43.555Z,0.00
2022-12-31T05:19:43.475Z,0.00
2022-12-31T05:20:43.434Z,0.00
2022-12-31T05:21:43.534Z,0.00
2022-12-31T05:22:43.343Z,0.00
2022-12-31T05:23:43.532Z,0.00
2022-12-31T05:24:43.271Z,0.00
2022-12-31T05:25:43.205Z,0.00
2022-12-31T05:26:43.163Z,0.00
2022-12-31T05:27:43.357Z,0.00
2022-12-31T05:28:43.079Z,0.00
2022-12-31T05:29:43.166Z,0.00
2022-12-31T05:30:43.251Z,0.00
2022-12-31T05:31:42.940Z,0.00
2022-12-31T05:32:42.904Z,0.00
2022-12-31T05:33:43.001Z,0.00
2022-12-31T05:34:42.808Z,0.00
2022-12-31T05:35:43.000Z,0.00
2022-12-31T05:36:42.731Z,0.00
2022-12-31T05:37:42.670Z,0.00
2022-12-31T05:38:42.818Z,0.00
2022-12-31T05:39:42.576Z,0.00
2022-12-31T05:40:42.630Z,0.00
2022-12-31T05:41:42.489Z,0.00
2022-12-31T05:42:42.847Z,0.00
2022-12-31T05:43:42.402Z,0.00
2022-12-31T05:44:42.462Z,0.00
2022-12-31T05:45:42.335Z,0.00
2022-12-31T05:46:42.476Z,0.00
2022-12-31T05:47:42.236Z,0.00
2022-12-31T05:48:42.210Z,0.00
2022-12-31T05:49:42.141Z,0.00
2022-12-31T05:50:42.295Z,0.00
2022-12-31T05:51:42.041Z,0.00
2022-12-31T05:52:47.274Z,0.00
2022-12-31T05:53:41.950Z,0.00
2022-12-31T05:54:41.912Z,0.00
2022-12-31T05:55:41.864Z,0.00
2022-12-31T05:56:41.924Z,0.00
2022-12-31T05:57:41.790Z,0.00
2022-12-31T05:58:41.950Z,0.00
2022-12-31T05:59:41.693Z,0.00
2022-12-31T06:03:48.088Z,0.00
2022-12-31T06:04:47.943Z,0.00
2022-12-31T06:05:47.895Z,0.00
2022-12-31T06:06:47.848Z,0.00
2022-12-31T06:07:47.805Z,0.00
2022-12-31T06:08:47.757Z,0.00
2022-12-31T06:09:47.735Z,0.00
2022-12-31T06:10:47.668Z,0.00
2022-12-31T06:11:47.636Z,0.00
2022-12-31T06:12:47.578Z,0.00
2022-12-31T06:13:47.530Z,0.00
2022-12-31T06:14:47.484Z,0.00
2022-12-31T06:15:47.548Z,0.00
2022-12-31T06:16:47.399Z,0.00
2022-12-31T06:17:47.349Z,0.00
2022-12-31T06:18:47.314Z,0.00
2022-12-31T06:19:47.279Z,0.00
2022-12-31T06:20:47.214Z,0.00
2022-12-31T06:21:47.184Z,0.00
2022-12-31T06:22:47.121Z,0.00
2022-12-31T06:23:47.081Z,0.00
2022-12-31T06:24:47.043Z,0.00
2022-12-31T06:25:46.989Z,0.00
2022-12-31T06:26:46.959Z,0.00
2022-12-31T06:27:46.901Z,0.00
2022-12-31T06:28:46.851Z,0.00
2022-12-31T06:29:46.811Z,0.00
2022-12-31T06:30:46.778Z,0.00
2022-12-31T06:31:46.743Z,0.00
2022-12-31T06:32:46.681Z,0.00
2022-12-31T06:33:46.634Z,0.00
2022-12-31T06:34:46.584Z,0.00
2022-12-31T06:35:46.545Z,0.00
2022-12-31T06:36:46.498Z,0.00
2022-12-31T06:37:46.464Z,0.00
2022-12-31T06:38:46.423Z,0.00
2022-12-31T06:39:46.362Z,4.00
2022-12-31T06:40:46.315Z,4.00
2022-12-31T06:41:46.272Z,4.00
2022-12-31T06:42:46.225Z,0.00
2022-12-31T06:43:46.187Z,4.00
2022-12-31T06:44:46.169Z,4.00
2022-12-31T06:45:46.093Z,4.00
2022-12-31T06:46:46.077Z,4.00
2022-12-31T06:47:45.999Z,8.00
2022-12-31T06:48:45.956Z,8.00
2022-12-31T06:49:45.908Z,8.00
2022-12-31T06:50:45.883Z,12.00
2022-12-31T06:51:45.843Z,12.00
2022-12-31T06:52:45.777Z,16.00
2022-12-31T06:53:45.742Z,16.00
2022-12-31T06:54:45.692Z,20.00
2022-12-31T06:55:45.642Z,24.00
2022-12-31T06:56:45.618Z,28.00
2022-12-31T06:57:45.550Z,36.00
2022-12-31T06:58:45.507Z,40.00
2022-12-31T06:59:45.503Z,48.00
2022-12-31T07:00:45.418Z,52.00
2022-12-31T07:01:45.488Z,60.00
2022-12-31T07:02:45.414Z,72.00
2022-12-31T07:03:45.288Z,80.00
2022-12-31T07:04:45.237Z,88.00
2022-12-31T07:05:45.191Z,100.00
2022-12-31T07:06:45.155Z,116.00
2022-12-31T07:07:45.101Z,132.00
2022-12-31T07:08:45.100Z,148.00
2022-12-31T07:09:45.016Z,164.00
2022-12-31T07:10:44.975Z,176.00
2022-12-31T07:11:44.922Z,196.00
2022-12-31T07:12:44.877Z,216.00
2022-12-31T07:13:44.840Z,232.00
2022-12-31T07:14:44.805Z,252.00
2022-12-31T07:15:44.782Z,272.00
2022-12-31T07:16:44.696Z,296.00
2022-12-31T07:17:44.685Z,320.00
2022-12-31T07:18:44.611Z,352.00
2022-12-31T07:19:44.582Z,384.00
2022-12-31T07:20:44.534Z,420.00
2022-12-31T07:21:44.480Z,464.00
2022-12-31T07:22:44.438Z,516.00
2022-12-31T07:23:44.411Z,568.00
2022-12-31T07:24:44.353Z,628.00
2022-12-31T07:25:44.303Z,680.00
2022-12-31T07:26:44.251Z,724.00
2022-12-31T07:27:44.206Z,760.00
2022-12-31T07:28:44.178Z,796.00
2022-12-31T07:29:44.126Z,828.00
2022-12-31T07:30:44.071Z,876.00
2022-12-31T07:31:44.054Z,924.00
2022-12-31T07:32:43.997Z,972.00
2022-12-31T07:33:43.942Z,1036.00
2022-12-31T07:34:43.895Z,1096.00
2022-12-31T07:35:43.847Z,1144.00
2022-12-31T07:36:43.803Z,1188.00
2022-12-31T07:37:43.790Z,1232.00
2022-12-31T07:38:43.714Z,1272.00
2022-12-31T07:39:43.670Z,1316.00
2022-12-31T07:40:43.624Z,1360.00
2022-12-31T07:41:43.587Z,1412.00
2022-12-31T07:42:43.532Z,1468.00
2022-12-31T07:43:43.518Z,1524.00
2022-12-31T07:44:43.467Z,1580.00
2022-12-31T07:45:43.401Z,1632.00
2022-12-31T07:46:43.384Z,1676.00
2022-12-31T07:47:43.314Z,1712.00
2022-12-31T07:48:43.270Z,1740.00
2022-12-31T07:49:43.248Z,1780.00
2022-12-31T07:50:43.179Z,1812.00
2022-12-31T07:51:43.136Z,1840.00
2022-12-31T07:52:43.092Z,1864.00
2022-12-31T07:53:43.050Z,1896.00
2022-12-31T07:54:43.016Z,1944.00
2022-12-31T07:55:42.974Z,1988.00
2022-12-31T07:56:42.923Z,2032.00
2022-12-31T07:57:42.866Z,2080.00
2022-12-31T07:58:42.820Z,2140.00
2022-12-31T07:59:42.786Z,2196.00
2022-12-31T08:00:42.788Z,2256.00
2022-12-31T08:01:42.859Z,2316.00
2022-12-31T08:02:42.673Z,2372.00
2022-12-31T08:03:42.609Z,2424.00
2022-12-31T08:04:42.555Z,2476.00
2022-12-31T08:05:42.519Z,2528.00
2022-12-31T08:06:42.495Z,2592.00
2022-12-31T08:07:42.418Z,2656.00
2022-12-31T08:08:42.378Z,2712.00
2022-12-31T08:09:42.331Z,2784.00
2022-12-31T08:10:42.295Z,2864.00
2022-12-31T08:11:42.236Z,2952.00
2022-12-31T08:12:42.220Z,3052.00
2022-12-31T08:13:42.151Z,3156.00
2022-12-31T08:14:42.104Z,3260.00
2022-12-31T08:15:42.061Z,3352.00
2022-12-31T08:16:42.036Z,3392.00
2022-12-31T08:17:41.976Z,3468.00
2022-12-31T08:18:41.947Z,3536.00
2022-12-31T08:19:41.882Z,3572.00
2022-12-31T08:20:41.837Z,3596.00
2022-12-31T08:21:41.797Z,3592.00
2022-12-31T08:22:41.753Z,3592.00
2022-12-31T08:23:41.710Z,3592.00
2022-12-31T08:24:41.693Z,3596.00
2022-12-31T08:25:41.615Z,3596.00
2022-12-31T08:26:41.568Z,3604.00
2022-12-31T08:27:41.527Z,3632.00
2022-12-31T08:28:41.485Z,3644.00
2022-12-31T08:29:41.441Z,3648.00
2022-12-31T08:30:41.429Z,3628.00
2022-12-31T08:31:41.390Z,3588.00
2022-12-31T08:32:41.313Z,3560.00
2022-12-31T08:33:41.256Z,3528.00
2022-12-31T08:34:41.218Z,3496.00
2022-12-31T08:35:41.167Z,3476.00
2022-12-31T08:36:41.142Z,3472.00
2022-12-31T08:37:41.081Z,3484.00
2022-12-31T08:38:41.039Z,3496.00
2022-12-31T08:39:40.987Z,3540.00
2022-12-31T08:40:40.943Z,3584.00
2022-12-31T08:41:42.942Z,3644.00
2022-12-31T08:42:40.890Z,3708.00
2022-12-31T08:43:40.808Z,3740.00
2022-12-31T08:44:40.769Z,3764.00
2022-12-31T08:45:40.760Z,3796.00
2022-12-31T08:46:40.709Z,3824.00
2022-12-31T08:47:40.643Z,3828.00
2022-12-31T08:48:40.648Z,3860.00
2022-12-31T08:49:40.569Z,3880.00
2022-12-31T08:50:40.522Z,3884.00
2022-12-31T08:51:40.495Z,3904.00
2022-12-31T08:52:40.414Z,3920.00
2022-12-31T08:53:40.370Z,3948.00
2022-12-31T08:54:40.325Z,3984.00
2022-12-31T08:55:40.284Z,4016.00
2022-12-31T08:56:40.257Z,4060.00
2022-12-31T08:57:40.197Z,4108.00
2022-12-31T08:58:40.147Z,4148.00
2022-12-31T08:59:40.110Z,4180.00
2022-12-31T09:00:40.101Z,4208.00
2022-12-31T09:01:40.098Z,4232.00
2022-12-31T09:02:44.588Z,4260.00
2022-12-31T09:03:39.922Z,4292.00
2022-12-31T09:04:39.890Z,4320.00
2022-12-31T09:05:39.838Z,4352.00
2022-12-31T09:06:39.793Z,4376.00
2022-12-31T09:07:39.745Z,4400.00
2022-12-31T09:08:39.739Z,4420.00
2022-12-31T09:09:39.680Z,4440.00
2022-12-31T09:10:39.617Z,4456.00
2022-12-31T09:11:39.601Z,4476.00
2022-12-31T09:12:39.538Z,4504.00
2022-12-31T09:13:39.487Z,4524.00
2022-12-31T09:14:39.444Z,4544.00
2022-12-31T09:15:39.400Z,4560.00
2022-12-31T09:16:39.375Z,4584.00
2022-12-31T09:17:39.322Z,4620.00
2022-12-31T09:18:39.266Z,4632.00
2022-12-31T09:19:39.215Z,4660.00
2022-12-31T09:20:43.713Z,4696.00
2022-12-31T09:21:39.144Z,4752.00
2022-12-31T09:22:39.105Z,4812.00
2022-12-31T09:23:39.051Z,4872.00
2022-12-31T09:24:38.995Z,4932.00
2022-12-31T09:25:38.964Z,4992.00
2022-12-31T09:26:38.911Z,5064.00
2022-12-31T09:27:38.868Z,5148.00
2022-12-31T09:28:38.890Z,5228.00
2022-12-31T09:29:38.793Z,5352.00
2022-12-31T09:30:38.736Z,5520.00
2022-12-31T09:31:38.728Z,5684.00
2022-12-31T09:32:38.645Z,5868.00
2022-12-31T09:33:38.605Z,6028.00
2022-12-31T09:34:38.579Z,6328.00
2022-12-31T09:35:38.527Z,6564.00
2022-12-31T09:36:38.471Z,6820.00
2022-12-31T09:37:38.433Z,7084.00
2022-12-31T09:38:38.391Z,7380.00
2022-12-31T09:39:38.358Z,7640.00
2022-12-31T09:40:38.324Z,7916.00
2022-12-31T09:41:38.254Z,8184.00
2022-12-31T09:42:38.208Z,8424.00
2022-12-31T09:43:38.171Z,8656.00
2022-12-31T09:44:38.126Z,8780.00
2022-12-31T09:45:38.109Z,8828.00
2022-12-31T09:46:38.061Z,8928.00
2022-12-31T09:47:37.995Z,9156.00
2022-12-31T09:48:37.949Z,9332.00
2022-12-31T09:49:37.922Z,9552.00
2022-12-31T09:50:37.865Z,9808.00
2022-12-31T09:51:37.831Z,10196.00
2022-12-31T09:52:37.791Z,10588.00
2022-12-31T09:53:37.732Z,11372.00
2022-12-31T09:54:37.691Z,12788.00
2022-12-31T09:55:37.649Z,15776.00
2022-12-31T09:56:37.605Z,16224.00
2022-12-31T09:57:37.564Z,17248.00
2022-12-31T09:58:37.535Z,18496.00
2022-12-31T09:59:37.471Z,19520.00
2022-12-31T10:00:37.456Z,20576.00
2022-12-31T10:01:37.477Z,22688.00
2022-12-31T10:02:37.518Z,22688.00
2022-12-31T10:03:37.305Z,22496.00
2022-12-31T10:04:37.263Z,21664.00
2022-12-31T10:05:37.220Z,19136.00
2022-12-31T10:06:37.212Z,22048.00
2022-12-31T10:07:37.136Z,25152.00
2022-12-31T10:08:37.095Z,24992.00
2022-12-31T10:09:37.060Z,23840.00
2022-12-31T10:10:37.016Z,23680.00
2022-12-31T10:11:36.978Z,25760.00
2022-12-31T10:12:36.979Z,29312.00
2022-12-31T10:13:36.896Z,26272.00
2022-12-31T10:14:38.119Z,23264.00
2022-12-31T10:15:36.815Z,20288.00
2022-12-31T10:16:36.801Z,20832.00
2022-12-31T10:17:36.729Z,21792.00
2022-12-31T10:18:36.706Z,22592.00
2022-12-31T10:19:36.675Z,22304.00
2022-12-31T10:20:41.546Z,22976.00
2022-12-31T10:21:36.586Z,21920.00
2022-12-31T10:22:36.538Z,24256.00
2022-12-31T10:23:36.500Z,28320.00
2022-12-31T10:24:36.457Z,25888.00
2022-12-31T10:25:38.951Z,25056.00
2022-12-31T10:26:36.379Z,26112.00
2022-12-31T10:27:36.342Z,23872.00
2022-12-31T10:28:36.299Z,25760.00
2022-12-31T10:29:36.275Z,26144.00
2022-12-31T10:30:36.253Z,24544.00
2022-12-31T10:31:36.196Z,25408.00
2022-12-31T10:32:36.146Z,26304.00
2022-12-31T10:33:36.105Z,24800.00
2022-12-31T10:34:36.070Z,25088.00
2022-12-31T10:35:36.041Z,27232.00
2022-12-31T10:36:36.009Z,28352.00
2022-12-31T10:37:35.967Z,31296.00
2022-12-31T10:38:35.918Z,30304.00
2022-12-31T10:39:35.887Z,30880.00
2022-12-31T10:40:35.846Z,26688.00
2022-12-31T10:41:35.824Z,28064.00
2022-12-31T10:42:35.772Z,28576.00
2022-12-31T10:43:35.725Z,28896.00
2022-12-31T10:44:35.695Z,29344.00
2022-12-31T10:45:35.646Z,30176.00
2022-12-31T10:46:35.695Z,30272.00
2022-12-31T10:47:35.590Z,30336.00
2022-12-31T10:48:35.588Z,29888.00
2022-12-31T10:49:35.495Z,33632.00
2022-12-31T10:50:35.461Z,34400.00
2022-12-31T10:51:35.425Z,31936.00
2022-12-31T10:52:41.359Z,32000.00
2022-12-31T10:53:35.365Z,31584.00
2022-12-31T10:54:35.307Z,34016.00
2022-12-31T10:55:35.265Z,36064.00
2022-12-31T10:56:35.227Z,33696.00
2022-12-31T10:57:35.187Z,34912.00
2022-12-31T10:58:35.172Z,33568.00
2022-12-31T10:59:35.111Z,32704.00
2022-12-31T11:00:35.077Z,30720.00
2022-12-31T11:01:35.147Z,29472.00
2022-12-31T11:02:35.087Z,29952.00
2022-12-31T11:03:35.080Z,29664.00
2022-12-31T11:04:34.923Z,31648.00
2022-12-31T11:05:34.878Z,30368.00
2022-12-31T11:06:34.841Z,28512.00
2022-12-31T11:07:34.801Z,24864.00
2022-12-31T11:08:34.766Z,24160.00
2022-12-31T11:09:34.972Z,26176.00
2022-12-31T11:10:34.689Z,27616.00
2022-12-31T11:11:34.656Z,32896.00
2022-12-31T11:12:34.613Z,33856.00
2022-12-31T11:13:34.576Z,32768.00
2022-12-31T11:14:34.548Z,30560.00
2022-12-31T11:15:34.628Z,29472.00
2022-12-31T11:16:34.462Z,28032.00
2022-12-31T11:17:34.436Z,28288.00
2022-12-31T11:18:34.389Z,28256.00
2022-12-31T11:19:34.370Z,27424.00
2022-12-31T11:20:34.311Z,27264.00
2022-12-31T11:21:39.399Z,24960.00
2022-12-31T11:22:34.240Z,23808.00
2022-12-31T11:23:34.193Z,24704.00
2022-12-31T11:24:34.159Z,24864.00
2022-12-31T11:25:34.121Z,25472.00
2022-12-31T11:26:34.078Z,25568.00
2022-12-31T11:27:34.050Z,26272.00
2022-12-31T11:28:34.002Z,25536.00
2022-12-31T11:29:33.979Z,24192.00
2022-12-31T11:30:33.923Z,24576.00
2022-12-31T11:31:34.027Z,25024.00
2022-12-31T11:32:33.869Z,26944.00
2022-12-31T11:33:33.803Z,27424.00
2022-12-31T11:34:33.767Z,26656.00
2022-12-31T11:35:33.835Z,24992.00
2022-12-31T11:36:33.688Z,26656.00
2022-12-31T11:37:33.659Z,27776.00
2022-12-31T11:38:33.609Z,26496.00
2022-12-31T11:39:33.569Z,27040.00
2022-12-31T11:40:33.526Z,26528.00
2022-12-31T11:41:33.509Z,25344.00
2022-12-31T11:42:33.450Z,26048.00
2022-12-31T11:43:33.408Z,26080.00
2022-12-31T11:44:33.374Z,25248.00
2022-12-31T11:45:33.327Z,25280.00
2022-12-31T11:46:33.335Z,25120.00
2022-12-31T11:47:33.278Z,24416.00
2022-12-31T11:48:33.238Z,24064.00
2022-12-31T11:49:33.169Z,23712.00
2022-12-31T11:50:33.130Z,22752.00
2022-12-31T11:51:33.090Z,21376.00
2022-12-31T11:52:33.050Z,22592.00
2022-12-31T11:53:33.037Z,22944.00
2022-12-31T11:54:32.973Z,22880.00
2022-12-31T11:55:32.929Z,22784.00
2022-12-31T11:56:32.901Z,23136.00
2022-12-31T11:57:32.848Z,21536.00
2022-12-31T11:58:32.808Z,21152.00
2022-12-31T11:59:32.794Z,20640.00
2022-12-31T12:00:32.728Z,19776.00
2022-12-31T12:01:32.753Z,20288.00
2022-12-31T12:02:32.687Z,20800.00
2022-12-31T12:03:32.635Z,21408.00
2022-12-31T12:04:32.568Z,21792.00
2022-12-31T12:05:32.579Z,20992.00
2022-12-31T12:06:32.486Z,20480.00
2022-12-31T12:07:32.443Z,19840.00
2022-12-31T12:08:32.408Z,19648.00
2022-12-31T12:09:32.383Z,19776.00
2022-12-31T12:10:36.445Z,19840.00
2022-12-31T12:11:32.315Z,19328.00
2022-12-31T12:12:32.247Z,18880.00
2022-12-31T12:13:32.199Z,18528.00
2022-12-31T12:14:32.165Z,18528.00
2022-12-31T12:15:32.117Z,18560.00
2022-12-31T12:16:32.140Z,18528.00
2022-12-31T12:17:32.092Z,18720.00
2022-12-31T12:18:39.744Z,18752.00
2022-12-31T12:19:32.119Z,19008.00
2022-12-31T12:20:31.920Z,19264.00
2022-12-31T12:21:32.131Z,19872.00
2022-12-31T12:22:32.145Z,20064.00
2022-12-31T12:23:31.821Z,20064.00
2022-12-31T12:24:31.948Z,19776.00
2022-12-31T12:25:31.707Z,19392.00
2022-12-31T12:26:31.972Z,19072.00
2022-12-31T12:27:31.629Z,19072.00
2022-12-31T12:28:31.595Z,19040.00
2022-12-31T12:29:31.982Z,18912.00
2022-12-31T12:30:31.529Z,18560.00
2022-12-31T12:31:31.541Z,18272.00
2022-12-31T12:32:31.424Z,18016.00
2022-12-31T12:33:31.503Z,17824.00
2022-12-31T12:34:31.523Z,17792.00
2022-12-31T12:35:31.356Z,17568.00
2022-12-31T12:36:31.386Z,17184.00
2022-12-31T12:37:31.222Z,16768.00
2022-12-31T12:38:33.377Z,16352.00
2022-12-31T12:39:31.148Z,16100.00
2022-12-31T12:40:34.033Z,15848.00
2022-12-31T12:41:31.452Z,15636.00
2022-12-31T12:42:31.044Z,15404.00